createdAt,value
2023-02-27T00:02:11.894Z,103087.75
2023-02-27T00:04:38.545Z,103100.28
2023-02-27T00:07:05.192Z,103090.63
2023-02-27T00:09:31.700Z,103094.22
2023-02-27T00:11:58.282Z,103093.38
2023-02-27T00:14:24.834Z,103096.16
2023-02-27T00:16:51.675Z,103096.16
2023-02-27T00:19:18.289Z,103096.31
2023-02-27T00:21:44.838Z,103099.94
2023-02-27T00:24:11.780Z,103093.75
2023-02-27T00:26:38.431Z,103092.00
2023-02-27T00:29:06.293Z,103084.06
2023-02-27T00:31:33.118Z,103091.22
2023-02-27T00:33:59.614Z,103091.34
2023-02-27T00:36:26.142Z,103086.03
2023-02-27T00:38:52.682Z,103086.03
2023-02-27T00:41:19.232Z,103087.09
2023-02-27T00:43:45.736Z,103089.84
2023-02-27T00:46:12.363Z,103085.47
2023-02-27T00:48:38.872Z,103096.16
2023-02-27T00:51:05.670Z,103090.03
2023-02-27T00:53:32.182Z,103090.97
2023-02-27T00:55:58.668Z,103085.72
2023-02-27T00:58:25.202Z,103082.19
2023-02-27T01:00:51.774Z,103077.75
2023-02-27T01:03:18.326Z,103082.25
2023-02-27T01:05:44.820Z,103078.81
2023-02-27T01:08:11.431Z,103086.00
2023-02-27T01:10:38.148Z,103085.09
2023-02-27T01:13:04.686Z,103086.06
2023-02-27T01:15:31.212Z,103085.19
2023-02-27T01:17:57.734Z,103090.66
2023-02-27T01:20:24.247Z,103086.22
2023-02-27T01:22:50.762Z,103086.31
2023-02-27T01:25:17.365Z,103080.97
2023-02-27T01:27:43.919Z,103077.44
2023-02-27T01:30:15.706Z,103073.97
2023-02-27T01:32:42.642Z,103076.66
2023-02-27T01:35:09.518Z,103080.28
2023-02-27T01:37:36.054Z,103079.41
2023-02-27T01:40:03.038Z,103076.84
2023-02-27T01:42:29.653Z,103078.66
2023-02-27T01:45:11.855Z,103075.19
2023-02-27T01:47:41.880Z,103076.06
2023-02-27T01:50:10.332Z,103074.34
2023-02-27T01:52:38.792Z,103071.75
2023-02-27T01:55:08.588Z,103068.19
2023-02-27T01:57:36.407Z,103075.34
2023-02-27T02:00:04.559Z,103066.47
2023-02-27T02:02:42.132Z,103073.75
2023-02-27T02:05:09.708Z,103065.72
2023-02-27T02:07:38.508Z,103072.00
2023-02-27T02:10:06.332Z,103065.78
2023-02-27T02:12:36.045Z,103059.66
2023-02-27T02:15:03.362Z,103069.41
2023-02-27T02:17:43.905Z,103067.69
2023-02-27T02:20:28.466Z,103074.88
2023-02-27T02:23:00.793Z,103077.53
2023-02-27T02:26:02.754Z,103077.69
2023-02-27T02:29:05.347Z,103074.94
2023-02-27T02:31:54.686Z,103074.00
2023-02-27T02:34:33.439Z,103074.94
2023-02-27T02:37:18.789Z,103067.00
2023-02-27T02:40:11.333Z,103069.75
2023-02-27T02:43:08.530Z,103078.66
2023-02-27T02:45:48.336Z,103072.50
2023-02-27T02:48:26.531Z,103082.34
2023-02-27T02:51:26.817Z,103077.97
2023-02-27T02:53:59.532Z,103081.50
2023-02-27T02:56:51.372Z,103081.66
2023-02-27T02:59:36.718Z,103080.81
2023-02-27T03:02:10.755Z,103076.31
2023-02-27T03:04:49.623Z,103077.34
2023-02-27T03:07:30.255Z,103075.63
2023-02-27T03:10:20.952Z,103082.88
2023-02-27T03:12:57.269Z,103073.91
2023-02-27T03:15:33.639Z,103081.13
2023-02-27T03:18:08.920Z,103083.78
2023-02-27T03:20:42.788Z,103078.53
2023-02-27T03:23:14.461Z,103078.66
2023-02-27T03:25:46.152Z,103086.66
2023-02-27T03:28:19.099Z,103083.19
2023-02-27T03:30:54.767Z,103076.13
2023-02-27T03:33:39.330Z,103080.69
2023-02-27T03:36:43.095Z,103078.97
2023-02-27T03:39:23.864Z,103078.97
2023-02-27T03:42:22.611Z,103072.84
2023-02-27T03:44:55.038Z,103075.53
2023-02-27T03:47:21.933Z,103072.84
2023-02-27T03:49:51.135Z,103071.09
2023-02-27T03:52:22.410Z,103077.41
2023-02-27T03:54:56.860Z,103077.41
2023-02-27T03:57:23.567Z,103076.56
2023-02-27T03:59:50.296Z,103066.81
2023-02-27T04:02:17.043Z,103076.66
2023-02-27T04:04:43.575Z,103069.53
2023-02-27T04:07:38.099Z,103073.19
2023-02-27T04:10:29.618Z,103075.94
2023-02-27T04:13:11.277Z,103079.56
2023-02-27T04:16:00.738Z,103082.31
2023-02-27T04:18:54.735Z,103086.88
2023-02-27T04:21:47.287Z,103091.31
2023-02-27T04:24:46.192Z,103094.09
2023-02-27T04:27:26.629Z,103092.38
2023-02-27T04:30:06.268Z,103100.38
2023-02-27T04:32:39.396Z,103102.19
2023-02-27T04:35:15.864Z,103104.94
2023-02-27T04:38:00.800Z,103106.84
2023-02-27T04:40:42.611Z,103106.84
2023-02-27T04:43:12.367Z,103109.50
2023-02-27T04:45:41.473Z,103114.84
2023-02-27T04:48:20.200Z,103115.88
2023-02-27T04:51:11.351Z,103107.94
2023-02-27T04:53:47.635Z,103113.31
2023-02-27T04:56:19.296Z,103114.25
2023-02-27T04:58:51.967Z,103113.34
2023-02-27T05:01:24.472Z,103116.97
2023-02-27T05:03:54.384Z,103125.09
2023-02-27T05:06:25.609Z,103122.41
2023-02-27T05:09:04.718Z,103122.47
2023-02-27T05:11:56.732Z,103126.19
2023-02-27T05:14:30.317Z,103125.25
2023-02-27T05:17:07.883Z,103120.84
2023-02-27T05:19:38.411Z,103123.53
2023-02-27T05:22:26.248Z,103121.00
2023-02-27T05:25:17.402Z,103121.00
2023-02-27T05:27:50.645Z,103130.75
2023-02-27T05:30:38.127Z,103124.63
2023-02-27T05:33:20.820Z,103123.69
2023-02-27T05:35:55.003Z,103127.31
2023-02-27T05:38:38.953Z,103129.97
2023-02-27T05:41:11.610Z,103130.94
2023-02-27T05:43:44.484Z,103130.94
2023-02-27T05:46:16.047Z,103137.19
2023-02-27T05:48:47.641Z,103140.81
2023-02-27T05:51:16.976Z,103145.31
2023-02-27T05:53:50.976Z,103144.44
2023-02-27T05:56:22.179Z,103148.06
2023-02-27T05:58:55.990Z,103140.13
2023-02-27T06:01:22.397Z,103147.38
2023-02-27T06:03:48.957Z,103143.59
2023-02-27T06:06:19.502Z,103153.56
2023-02-27T06:08:46.294Z,103154.50
2023-02-27T06:11:13.232Z,103150.94
2023-02-27T06:13:41.961Z,103164.41
2023-02-27T06:16:12.698Z,103161.81
2023-02-27T06:18:39.593Z,103163.59
2023-02-27T06:21:06.492Z,103170.84
2023-02-27T06:23:32.988Z,103173.53
2023-02-27T06:25:59.643Z,103170.84
2023-02-27T06:28:26.417Z,103186.97
2023-02-27T06:30:54.599Z,103186.06
2023-02-27T06:33:21.071Z,103190.56
2023-02-27T06:35:48.963Z,103188.84
2023-02-27T06:38:15.779Z,103194.28
2023-02-27T06:40:42.577Z,103195.19
2023-02-27T06:43:09.340Z,103200.53
2023-02-27T06:45:36.069Z,103200.53
2023-02-27T06:48:02.789Z,103194.31
2023-02-27T06:50:29.548Z,103203.22
2023-02-27T06:52:56.075Z,103197.94
2023-02-27T06:55:24.911Z,103197.00
2023-02-27T06:57:51.548Z,103197.09
2023-02-27T07:00:18.530Z,103200.63
2023-02-27T07:02:45.062Z,103199.75
2023-02-27T07:05:12.173Z,103196.22
2023-02-27T07:07:39.432Z,103207.78
2023-02-27T07:10:08.087Z,103206.91
2023-02-27T07:12:34.938Z,103211.41
2023-02-27T07:15:01.495Z,103211.41
2023-02-27T07:17:28.083Z,103207.88
2023-02-27T07:19:54.660Z,103211.41
2023-02-27T07:22:21.249Z,103207.88
2023-02-27T07:24:47.883Z,103212.25
2023-02-27T07:27:14.363Z,103213.13
2023-02-27T07:29:40.909Z,103221.13
2023-02-27T07:32:07.520Z,103220.28
2023-02-27T07:34:34.739Z,103222.84
2023-02-27T07:37:01.246Z,103229.06
2023-02-27T07:39:27.748Z,103228.19
2023-02-27T07:41:54.259Z,103227.25
2023-02-27T07:44:20.818Z,103224.56
2023-02-27T07:46:47.694Z,103216.56
2023-02-27T07:49:14.290Z,103227.19
2023-02-27T07:51:40.811Z,103220.13
2023-02-27T07:54:07.399Z,103231.59
2023-02-27T07:56:34.460Z,103220.91
2023-02-27T07:59:00.956Z,103223.47
2023-02-27T08:01:27.498Z,103229.72
2023-02-27T08:03:55.082Z,103223.41
2023-02-27T08:06:21.856Z,103229.53
2023-02-27T08:08:48.404Z,103225.94
2023-02-27T08:11:15.571Z,103232.91
2023-02-27T08:13:59.525Z,103227.53
2023-02-27T08:16:27.288Z,103236.25
2023-02-27T08:18:54.280Z,103237.03
2023-02-27T08:21:20.768Z,103234.19
2023-02-27T08:23:47.568Z,103234.06
2023-02-27T08:26:14.150Z,103241.88
2023-02-27T08:28:40.828Z,103238.13
2023-02-27T08:31:07.474Z,103243.22
2023-02-27T08:33:34.657Z,103247.47
2023-02-27T08:36:01.240Z,103238.34
2023-02-27T08:38:27.905Z,103241.75
2023-02-27T08:40:54.479Z,103248.69
2023-02-27T08:43:24.198Z,103253.81
2023-02-27T08:45:51.675Z,103259.84
2023-02-27T08:48:18.815Z,103267.66
2023-02-27T08:50:46.269Z,103255.91
2023-02-27T08:53:13.113Z,103264.53
2023-02-27T08:55:39.603Z,103261.66
2023-02-27T08:58:06.252Z,103265.81
2023-02-27T09:00:32.971Z,103270.84
2023-02-27T09:03:00.566Z,103267.91
2023-02-27T09:05:28.487Z,103273.03
2023-02-27T09:07:55.022Z,103271.91
2023-02-27T09:10:21.654Z,103267.25
2023-02-27T09:12:49.314Z,103269.69
2023-02-27T09:15:16.724Z,103278.31
2023-02-27T09:17:43.314Z,103286.09
2023-02-27T09:20:10.836Z,103282.31
2023-02-27T09:22:38.137Z,103283.88
2023-02-27T09:25:05.492Z,103282.75
2023-02-27T09:27:32.027Z,103285.16
2023-02-27T09:29:59.265Z,103281.38
2023-02-27T09:32:27.213Z,103280.19
2023-02-27T09:34:53.904Z,103285.28
2023-02-27T09:37:20.483Z,103277.88
2023-02-27T09:39:47.389Z,103285.59
2023-02-27T09:42:22.278Z,103280.81
2023-02-27T09:45:05.861Z,103275.13
2023-02-27T09:47:39.684Z,103281.94
2023-02-27T09:50:39.363Z,103277.97
2023-02-27T09:53:14.548Z,103274.00
2023-02-27T09:55:42.694Z,103280.81
2023-02-27T09:58:42.166Z,103278.56
2023-02-27T10:01:16.503Z,103281.66
2023-02-27T10:03:55.240Z,103279.56
2023-02-27T10:06:27.105Z,103279.09
2023-02-27T10:09:16.390Z,103283.25
2023-02-27T10:11:53.279Z,103276.66
2023-02-27T10:14:27.086Z,103280.72
2023-02-27T10:16:54.586Z,103279.47
2023-02-27T10:19:28.683Z,103289.09
2023-02-27T10:21:58.157Z,103291.41
2023-02-27T10:24:37.411Z,103294.69
2023-02-27T10:27:07.710Z,103287.19
2023-02-27T10:29:41.644Z,103280.63
2023-02-27T10:32:11.016Z,103277.66
2023-02-27T10:34:41.309Z,103280.03
2023-02-27T10:37:13.210Z,103282.44
2023-02-27T10:39:47.765Z,103271.53
2023-02-27T10:42:16.281Z,103280.16
2023-02-27T10:44:42.853Z,103279.97
2023-02-27T10:47:15.694Z,103277.09
2023-02-27T10:49:43.131Z,103270.56
2023-02-27T10:52:14.849Z,103274.00
2023-02-27T10:54:42.629Z,103264.13
2023-02-27T10:57:26.799Z,103269.59
2023-02-27T10:59:56.231Z,103269.59
2023-02-27T11:02:26.817Z,103274.19
2023-02-27T11:04:55.855Z,103271.63
2023-02-27T11:07:34.946Z,103268.25
2023-02-27T11:10:18.519Z,103266.53
2023-02-27T11:13:18.643Z,103256.84
2023-02-27T11:16:03.151Z,103261.34
2023-02-27T11:18:30.756Z,103260.50
2023-02-27T11:21:27.448Z,103256.16
2023-02-27T11:24:07.708Z,103252.56
2023-02-27T11:26:53.246Z,103252.56
2023-02-27T11:29:20.387Z,103241.81
2023-02-27T11:32:00.344Z,103242.75
2023-02-27T11:34:34.545Z,103220.34
2023-02-27T11:37:05.941Z,103231.81
2023-02-27T11:39:47.909Z,103229.16
2023-02-27T11:42:26.040Z,103217.38
2023-02-27T11:45:07.007Z,103216.41
2023-02-27T11:47:37.675Z,103218.03
2023-02-27T11:50:36.237Z,103213.41
2023-02-27T11:53:33.134Z,103217.75
2023-02-27T11:56:03.474Z,103200.47
2023-02-27T11:58:40.987Z,103198.66
2023-02-27T12:01:15.818Z,103197.59
2023-02-27T12:03:54.992Z,103195.78
2023-02-27T12:06:27.427Z,103200.91
2023-02-27T12:09:06.079Z,103195.47
2023-02-27T12:11:40.939Z,103193.44
2023-02-27T12:14:28.534Z,103197.75
2023-02-27T12:17:06.893Z,103198.41
2023-02-27T12:19:42.128Z,103196.50
2023-02-27T12:22:21.066Z,103195.41
2023-02-27T12:24:52.526Z,103183.50
2023-02-27T12:27:44.999Z,103180.75
2023-02-27T12:30:28.010Z,103193.09
2023-02-27T12:33:08.080Z,103184.00
2023-02-27T12:35:34.610Z,103179.38
2023-02-27T12:38:02.716Z,103182.06
2023-02-27T12:40:50.584Z,103176.72
2023-02-27T12:43:44.220Z,103176.72
2023-02-27T12:46:21.226Z,103174.91
2023-02-27T12:49:11.354Z,103175.75
2023-02-27T12:51:38.079Z,103180.06
2023-02-27T12:54:20.208Z,103173.94
2023-02-27T12:57:14.118Z,103179.19
2023-02-27T12:59:57.583Z,103180.84
2023-02-27T13:03:01.681Z,103177.09
2023-02-27T13:05:43.185Z,103189.34
2023-02-27T13:08:55.683Z,103179.34
2023-02-27T13:11:51.039Z,103180.00
2023-02-27T13:14:29.479Z,103173.78
2023-02-27T13:17:16.917Z,103175.69
2023-02-27T13:20:02.938Z,103170.31
2023-02-27T13:22:47.647Z,103171.94
2023-02-27T13:25:15.990Z,103165.53
2023-02-27T13:27:47.987Z,103174.44
2023-02-27T13:30:35.218Z,103163.78
2023-02-27T13:33:21.479Z,103178.19
2023-02-27T13:36:27.053Z,103165.59
2023-02-27T13:38:55.218Z,103158.41
2023-02-27T13:41:24.598Z,103167.31
2023-02-27T13:43:53.337Z,103163.69
2023-02-27T13:46:25.998Z,103154.66
2023-02-27T13:49:04.833Z,103154.66
2023-02-27T13:51:43.390Z,103151.84
2023-02-27T13:54:16.051Z,103150.03
2023-02-27T13:56:48.218Z,103161.66
2023-02-27T13:59:23.676Z,103158.97
2023-02-27T14:01:59.986Z,103160.78
2023-02-27T14:04:30.232Z,103151.84
2023-02-27T14:07:06.866Z,103146.72
2023-02-27T14:09:39.454Z,103159.19
2023-02-27T14:12:28.878Z,103153.88
2023-02-27T14:14:58.977Z,103160.22
2023-02-27T14:17:37.891Z,103156.81
2023-02-27T14:20:27.429Z,103158.63
2023-02-27T14:23:16.092Z,103162.25
2023-02-27T14:25:54.745Z,103150.66
2023-02-27T14:28:33.963Z,103156.03
2023-02-27T14:31:03.738Z,103148.81
2023-02-27T14:33:41.348Z,103158.84
2023-02-27T14:36:15.384Z,103150.00
2023-02-27T14:38:42.048Z,103149.25
2023-02-27T14:41:31.897Z,103154.81
2023-02-27T14:43:59.161Z,103147.75
2023-02-27T14:46:39.763Z,103148.91
2023-02-27T14:49:17.966Z,103148.09
2023-02-27T14:51:44.599Z,103163.53
2023-02-27T14:54:21.457Z,103154.09
2023-02-27T14:57:05.247Z,103154.47
2023-02-27T14:59:40.792Z,103152.94
2023-02-27T15:02:23.099Z,103150.56
2023-02-27T15:05:00.734Z,103144.53
2023-02-27T15:07:30.280Z,103138.53
2023-02-27T15:10:02.603Z,103144.84
2023-02-27T15:12:31.902Z,103138.78
2023-02-27T15:15:02.410Z,103147.81
2023-02-27T15:17:38.871Z,103150.63
2023-02-27T15:20:22.256Z,103145.31
2023-02-27T15:22:48.841Z,103142.88
2023-02-27T15:25:28.919Z,103144.97
2023-02-27T15:28:03.259Z,103153.25
2023-02-27T15:30:30.887Z,103151.50
2023-02-27T15:32:58.299Z,103153.44
2023-02-27T15:35:30.820Z,103147.28
2023-02-27T15:37:59.010Z,103145.56
2023-02-27T15:40:31.232Z,103151.97
2023-02-27T15:42:59.067Z,103154.75
2023-02-27T15:45:30.367Z,103149.41
2023-02-27T15:47:57.146Z,103162.94
2023-02-27T15:50:37.332Z,103160.31
2023-02-27T15:53:24.413Z,103162.44
2023-02-27T15:55:55.535Z,103163.22
2023-02-27T15:58:29.729Z,103159.75
2023-02-27T16:01:07.284Z,103154.38
2023-02-27T16:03:39.640Z,103156.97
2023-02-27T16:06:18.231Z,103164.16
2023-02-27T16:09:06.835Z,103157.94
2023-02-27T16:11:36.034Z,103155.25
2023-02-27T16:14:04.094Z,103159.00
2023-02-27T16:16:37.487Z,103164.44
2023-02-27T16:19:27.006Z,103169.16
2023-02-27T16:22:07.094Z,103168.28
2023-02-27T16:24:33.898Z,103160.41
2023-02-27T16:27:01.820Z,103156.88
2023-02-27T16:29:39.763Z,103162.53
2023-02-27T16:32:06.463Z,103176.06
2023-02-27T16:34:45.596Z,103171.75
2023-02-27T16:37:38.395Z,103172.69
2023-02-27T16:40:20.046Z,103156.59
2023-02-27T16:42:46.722Z,103162.16
2023-02-27T16:45:31.972Z,103165.28
2023-02-27T16:48:00.285Z,103165.47
2023-02-27T16:50:28.921Z,103160.50
2023-02-27T16:52:56.111Z,103160.66
2023-02-27T16:55:23.259Z,103164.31
2023-02-27T16:57:49.781Z,103153.59
2023-02-27T17:00:18.025Z,103158.84
2023-02-27T17:02:46.621Z,103158.84
2023-02-27T17:05:15.179Z,103160.66
2023-02-27T17:07:42.135Z,103163.34
2023-02-27T17:10:11.734Z,103167.00
2023-02-27T17:12:39.095Z,103164.38
2023-02-27T17:15:06.179Z,103168.03
2023-02-27T17:17:32.730Z,103178.69
2023-02-27T17:19:59.322Z,103175.13
2023-02-27T17:22:25.895Z,103175.22
2023-02-27T17:24:52.494Z,103179.91
2023-02-27T17:27:18.975Z,103171.09
2023-02-27T17:29:45.511Z,103180.09
2023-02-27T17:32:12.176Z,103184.59
2023-02-27T17:34:38.846Z,103190.16
2023-02-27T17:37:05.405Z,103183.81
2023-02-27T17:39:33.437Z,103180.97
2023-02-27T17:41:59.995Z,103188.06
2023-02-27T17:44:27.018Z,103184.41
2023-02-27T17:46:53.586Z,103188.06
2023-02-27T17:49:20.153Z,103181.84
2023-02-27T17:51:46.946Z,103192.56
2023-02-27T17:54:13.482Z,103191.78
2023-02-27T17:56:39.973Z,103190.16
2023-02-27T17:59:08.170Z,103192.91
2023-02-27T18:01:35.716Z,103197.41
2023-02-27T18:04:02.320Z,103204.69
2023-02-27T18:06:29.239Z,103194.91
2023-02-27T18:08:55.974Z,103201.22
2023-02-27T18:11:23.150Z,103206.59
2023-02-27T18:13:50.481Z,103211.09
2023-02-27T18:16:17.754Z,103209.38
2023-02-27T18:18:44.361Z,103215.66
2023-02-27T18:21:16.733Z,103223.81
2023-02-27T18:23:44.137Z,103223.81
2023-02-27T18:26:29.925Z,103218.63
2023-02-27T18:29:07.148Z,103223.13
2023-02-27T18:31:36.879Z,103224.09
2023-02-27T18:34:04.188Z,103218.78
2023-02-27T18:36:31.418Z,103216.31
2023-02-27T18:38:58.974Z,103213.63
2023-02-27T18:41:25.570Z,103219.06
2023-02-27T18:43:52.051Z,103218.31
2023-02-27T18:46:18.723Z,103225.50
2023-02-27T18:48:46.170Z,103229.09
2023-02-27T18:51:15.482Z,103224.69
2023-02-27T18:53:45.885Z,103226.63
2023-02-27T18:56:14.394Z,103233.88
2023-02-27T18:58:40.968Z,103229.47
2023-02-27T19:01:08.491Z,103228.63
2023-02-27T19:03:35.930Z,103238.53
2023-02-27T19:06:02.756Z,103245.72
2023-02-27T19:08:29.286Z,103247.66
2023-02-27T19:10:57.184Z,103245.91
2023-02-27T19:13:25.225Z,103253.19
2023-02-27T19:15:52.791Z,103254.13
2023-02-27T19:18:19.638Z,103255.16
2023-02-27T19:20:46.359Z,103256.13
2023-02-27T19:23:12.900Z,103255.31
2023-02-27T19:25:39.516Z,103250.94
2023-02-27T19:28:06.426Z,103253.72
2023-02-27T19:30:32.957Z,103258.28
2023-02-27T19:32:59.598Z,103259.22
2023-02-27T19:35:26.394Z,103255.75
2023-02-27T19:37:58.012Z,103258.53
2023-02-27T19:40:26.195Z,103262.09
2023-02-27T19:42:52.957Z,103255.06
2023-02-27T19:45:19.524Z,103259.56
2023-02-27T19:47:46.720Z,103257.00
2023-02-27T19:50:13.423Z,103259.75
2023-02-27T19:52:40.344Z,103259.84
2023-02-27T19:55:07.515Z,103255.44
2023-02-27T19:57:35.452Z,103262.59
2023-02-27T20:00:01.995Z,103262.66
2023-02-27T20:02:29.097Z,103263.63
2023-02-27T20:04:55.698Z,103264.59
2023-02-27T20:07:22.778Z,103267.34
2023-02-27T20:09:49.821Z,103275.38
2023-02-27T20:12:16.414Z,103275.44
2023-02-27T20:14:42.979Z,103276.38
2023-02-27T20:17:09.950Z,103270.19
2023-02-27T20:19:36.497Z,103270.34
2023-02-27T20:22:03.799Z,103273.00
2023-02-27T20:24:30.311Z,103266.88
2023-02-27T20:26:59.155Z,103277.69
2023-02-27T20:29:27.104Z,103275.09
2023-02-27T20:31:55.715Z,103267.97
2023-02-27T20:34:26.221Z,103270.75
2023-02-27T20:36:54.812Z,103268.19
2023-02-27T20:39:22.346Z,103269.09
2023-02-27T20:41:48.962Z,103262.88
2023-02-27T20:44:15.597Z,103262.03
2023-02-27T20:46:43.542Z,103262.13
2023-02-27T20:49:11.876Z,103261.25
2023-02-27T20:51:39.583Z,103267.47
2023-02-27T20:54:09.009Z,103265.81
2023-02-27T20:56:38.360Z,103262.28
2023-02-27T20:59:06.895Z,103267.75
2023-02-27T21:01:33.780Z,103267.81
2023-02-27T21:04:00.975Z,103273.16
2023-02-27T21:06:27.649Z,103271.44
2023-02-27T21:08:56.407Z,103268.84
2023-02-27T21:11:29.415Z,103269.88
2023-02-27T21:13:57.996Z,103272.56
2023-02-27T21:16:27.693Z,103272.66
2023-02-27T21:18:56.658Z,103271.69
2023-02-27T21:21:30.581Z,103276.25
2023-02-27T21:23:57.588Z,103281.59
2023-02-27T21:26:34.983Z,103281.69
2023-02-27T21:29:08.607Z,103281.78
2023-02-27T21:31:36.764Z,103279.19
2023-02-27T21:34:06.927Z,103277.38
2023-02-27T21:36:36.956Z,103279.19
2023-02-27T21:39:06.384Z,103279.28
2023-02-27T21:41:34.646Z,103281.09
2023-02-27T21:44:04.684Z,103284.69
2023-02-27T21:46:32.767Z,103284.69
2023-02-27T21:48:59.798Z,103281.25
2023-02-27T21:51:39.532Z,103275.03
2023-02-27T21:54:09.815Z,103284.88
2023-02-27T21:56:36.557Z,103291.16
2023-02-27T21:59:04.225Z,103300.06
2023-02-27T22:01:31.276Z,103295.75
2023-02-27T22:03:58.491Z,103295.75
2023-02-27T22:06:28.275Z,103292.25
2023-02-27T22:08:56.555Z,103286.06
2023-02-27T22:11:24.445Z,103287.88
2023-02-27T22:13:51.357Z,103292.34
2023-02-27T22:16:19.000Z,103297.72
2023-02-27T22:18:45.979Z,103292.44
2023-02-27T22:21:17.380Z,103287.16
2023-02-27T22:23:44.905Z,103289.84
2023-02-27T22:26:14.463Z,103281.91
2023-02-27T22:28:41.755Z,103282.88
2023-02-27T22:31:13.916Z,103290.03
2023-02-27T22:33:42.703Z,103293.63
2023-02-27T22:36:29.403Z,103286.56
2023-02-27T22:38:56.515Z,103291.91
2023-02-27T22:41:26.319Z,103294.69
2023-02-27T22:43:53.041Z,103293.81
2023-02-27T22:46:31.476Z,103298.38
2023-02-27T22:49:00.675Z,103294.81
2023-02-27T22:51:28.656Z,103291.28
2023-02-27T22:54:00.588Z,103293.97
2023-02-27T22:56:29.522Z,103293.97
2023-02-27T22:58:56.398Z,103294.03
2023-02-27T23:01:26.016Z,103301.19
2023-02-27T23:03:55.909Z,103304.81
2023-02-27T23:06:27.758Z,103305.78
2023-02-27T23:08:54.450Z,103305.84
2023-02-27T23:11:21.693Z,103309.41
2023-02-27T23:13:48.692Z,103310.31
2023-02-27T23:16:15.368Z,103310.31
2023-02-27T23:18:48.371Z,103312.13
2023-02-27T23:21:17.269Z,103297.91
2023-02-27T23:23:44.343Z,103308.59
2023-02-27T23:26:11.813Z,103302.44
2023-02-27T23:28:38.823Z,103310.47
2023-02-27T23:31:06.495Z,103313.16
2023-02-27T23:33:33.390Z,103311.44
2023-02-27T23:36:01.347Z,103312.28
2023-02-27T23:38:29.117Z,103317.72
2023-02-27T23:40:56.106Z,103315.06
2023-02-27T23:43:41.616Z,103310.66
2023-02-27T23:46:10.268Z,103308.00
2023-02-27T23:48:37.825Z,103304.44
2023-02-27T23:51:05.895Z,103308.91
2023-02-27T23:53:34.106Z,103318.75
2023-02-27T23:56:00.926Z,103312.53
2023-02-27T23:58:27.698Z,103317.03
